createdAt,value
2022-10-09T00:01:10.994Z,100305.38
2022-10-09T00:03:39.603Z,100287.81
2022-10-09T00:06:08.112Z,100313.94
2022-10-09T00:08:36.063Z,100316.09
2022-10-09T00:11:11.145Z,100303.22
2022-10-09T00:13:38.082Z,100315.88
2022-10-09T00:16:07.144Z,100306.88
2022-10-09T00:18:34.648Z,100325.00
2022-10-09T00:21:01.702Z,100319.53
2022-10-09T00:23:28.600Z,100318.06
2022-10-09T00:25:59.077Z,100303.28
2022-10-09T00:28:27.811Z,100305.13
2022-10-09T00:30:54.740Z,100333.69
2022-10-09T00:33:22.002Z,100313.81
2022-10-09T00:35:49.139Z,100330.41
2022-10-09T00:38:16.673Z,100321.25
2022-10-09T00:40:43.515Z,100312.78
2022-10-09T00:43:17.360Z,100313.81
2022-10-09T00:45:56.604Z,100302.81
2022-10-09T00:48:23.890Z,100311.28
2022-10-09T00:50:56.738Z,100315.44
2022-10-09T00:53:27.054Z,100316.44
2022-10-09T00:55:54.308Z,100331.56
2022-10-09T00:58:22.424Z,100313.13
2022-10-09T01:00:49.494Z,100312.94
2022-10-09T01:03:16.442Z,100322.44
2022-10-09T01:06:24.786Z,100323.59
2022-10-09T01:09:05.700Z,100320.44
2022-10-09T01:11:38.474Z,100322.28
2022-10-09T01:14:17.335Z,100319.09
2022-10-09T01:16:55.815Z,100318.28
2022-10-09T01:20:01.069Z,100313.78
2022-10-09T01:23:03.773Z,100324.25
2022-10-09T01:25:40.227Z,100325.09
2022-10-09T01:28:08.560Z,100311.13
2022-10-09T01:30:35.615Z,100319.09
2022-10-09T01:33:03.670Z,100285.88
2022-10-09T01:35:31.862Z,100316.28
2022-10-09T01:38:00.185Z,100313.59
2022-10-09T01:40:28.584Z,100316.44
2022-10-09T01:42:56.317Z,100317.59
2022-10-09T01:45:23.162Z,100320.09
2022-10-09T01:47:50.035Z,100300.63
2022-10-09T01:50:30.625Z,100304.00
2022-10-09T01:53:03.443Z,100319.25
2022-10-09T01:55:49.713Z,100308.94
2022-10-09T01:58:22.245Z,100313.41
2022-10-09T02:01:13.157Z,100317.03
2022-10-09T02:03:43.033Z,100290.28
2022-10-09T02:06:12.868Z,100306.88
2022-10-09T02:08:41.580Z,100289.31
2022-10-09T02:11:08.513Z,100297.06
2022-10-09T02:13:36.232Z,100292.09
2022-10-09T02:16:11.778Z,100298.38
2022-10-09T02:18:43.307Z,100283.59
2022-10-09T02:21:15.119Z,100298.91
2022-10-09T02:23:44.498Z,100295.78
2022-10-09T02:26:12.725Z,100291.78
2022-10-09T02:28:45.081Z,100307.19
2022-10-09T02:31:30.894Z,100306.03
2022-10-09T02:33:59.373Z,100306.00
2022-10-09T02:36:27.031Z,100285.06
2022-10-09T02:38:55.504Z,100306.81
2022-10-09T02:41:23.004Z,100293.84
2022-10-09T02:43:50.327Z,100301.00
2022-10-09T02:46:17.534Z,100308.59
2022-10-09T02:48:44.717Z,100312.91
2022-10-09T02:51:11.868Z,100306.22
2022-10-09T02:53:38.647Z,100303.53
2022-10-09T02:56:05.752Z,100288.91
2022-10-09T02:58:34.349Z,100301.00
2022-10-09T03:01:01.527Z,100297.00
2022-10-09T03:03:28.303Z,100289.88
2022-10-09T03:06:12.771Z,100285.53
2022-10-09T03:08:42.412Z,100293.69
2022-10-09T03:11:10.294Z,100291.47
2022-10-09T03:13:37.255Z,100169.19
2022-10-09T03:16:18.221Z,100288.63
2022-10-09T03:18:46.557Z,100258.28
2022-10-09T03:21:17.436Z,100278.88
2022-10-09T03:23:44.822Z,100243.25
2022-10-09T03:26:14.956Z,100267.66
2022-10-09T03:28:44.564Z,100264.25
2022-10-09T03:31:22.553Z,100261.28
2022-10-09T03:33:54.708Z,100257.38
2022-10-09T03:36:21.433Z,100240.16
2022-10-09T03:38:48.160Z,100245.81
2022-10-09T03:41:15.009Z,100259.31
2022-10-09T03:43:41.711Z,100190.59
2022-10-09T03:46:09.204Z,100272.56
2022-10-09T03:48:36.879Z,100262.31
2022-10-09T03:51:04.261Z,100236.25
2022-10-09T03:53:31.701Z,100257.84
2022-10-09T03:55:58.611Z,100274.06
2022-10-09T03:58:25.452Z,100275.38
2022-10-09T04:00:53.209Z,100273.31
2022-10-09T04:03:20.861Z,100269.97
2022-10-09T04:05:47.617Z,100272.75
2022-10-09T04:08:14.425Z,100255.84
2022-10-09T04:10:41.446Z,100267.09
2022-10-09T04:13:08.161Z,100266.41
2022-10-09T04:15:35.513Z,100271.38
2022-10-09T04:18:02.485Z,100291.31
2022-10-09T04:20:29.267Z,100258.59
2022-10-09T04:22:56.057Z,100256.59
2022-10-09T04:25:22.895Z,100275.50
2022-10-09T04:27:49.704Z,100280.31
2022-10-09T04:30:16.726Z,100293.75
2022-10-09T04:32:43.589Z,100307.81
2022-10-09T04:35:10.289Z,100297.84
2022-10-09T04:37:37.070Z,100285.88
2022-10-09T04:40:04.724Z,100278.38
2022-10-09T04:42:31.449Z,100287.19
2022-10-09T04:44:58.233Z,100316.88
2022-10-09T04:47:25.088Z,100289.56
2022-10-09T04:49:51.887Z,100285.34
2022-10-09T04:52:18.601Z,100287.16
2022-10-09T04:54:45.472Z,100295.63
2022-10-09T04:57:12.325Z,100287.00
2022-10-09T04:59:39.185Z,100293.22
2022-10-09T05:02:06.140Z,100284.25
2022-10-09T05:04:32.997Z,100292.88
2022-10-09T05:06:59.797Z,100284.72
2022-10-09T05:09:26.971Z,100293.72
2022-10-09T05:11:53.860Z,100287.56
2022-10-09T05:14:20.612Z,100302.75
2022-10-09T05:17:12.630Z,100297.59
2022-10-09T05:19:39.018Z,100297.31
2022-10-09T05:22:05.860Z,100289.97
2022-10-09T05:24:32.569Z,100295.50
2022-10-09T05:27:01.955Z,100315.13
2022-10-09T05:29:45.052Z,100310.69
2022-10-09T05:32:25.746Z,100289.69
2022-10-09T05:34:57.497Z,100279.13
2022-10-09T05:37:24.253Z,100291.06
2022-10-09T05:39:50.937Z,100316.75
2022-10-09T05:42:17.723Z,100309.16
2022-10-09T05:44:44.461Z,100288.84
2022-10-09T05:47:11.206Z,100297.66
2022-10-09T05:49:37.943Z,100308.16
2022-10-09T05:52:04.752Z,100309.47
2022-10-09T05:54:32.449Z,100265.09
2022-10-09T05:56:59.314Z,100316.81
2022-10-09T05:59:26.076Z,100308.66
2022-10-09T06:01:53.589Z,100303.81
2022-10-09T06:04:23.293Z,100317.41
2022-10-09T06:06:50.301Z,100318.88
2022-10-09T06:09:19.404Z,100309.44
2022-10-09T06:11:46.698Z,100318.69
2022-10-09T06:14:14.007Z,100306.44
2022-10-09T06:16:43.304Z,100301.00
2022-10-09T06:19:15.662Z,100332.06
2022-10-09T06:21:42.950Z,100313.41
2022-10-09T06:24:18.460Z,100329.28
2022-10-09T06:26:45.234Z,100316.31
2022-10-09T06:29:12.048Z,100325.75
2022-10-09T06:31:39.361Z,100303.50
2022-10-09T06:34:06.085Z,100343.38
2022-10-09T06:36:35.386Z,100326.41
2022-10-09T06:39:05.632Z,100325.69
2022-10-09T06:41:32.503Z,100325.03
2022-10-09T06:44:01.462Z,100324.88
2022-10-09T06:46:35.346Z,100300.84
2022-10-09T06:49:03.403Z,100329.41
2022-10-09T06:51:30.592Z,100332.53
2022-10-09T06:53:59.674Z,100325.56
2022-10-09T06:56:29.422Z,100322.56
2022-10-09T06:58:59.190Z,100335.97
2022-10-09T07:01:30.589Z,100330.53
2022-10-09T07:04:07.285Z,100331.22
2022-10-09T07:06:38.524Z,100343.31
2022-10-09T07:09:07.888Z,100340.28
2022-10-09T07:11:43.511Z,100342.09
2022-10-09T07:14:11.627Z,100345.72
2022-10-09T07:16:41.202Z,100346.69
2022-10-09T07:19:11.330Z,100353.03
2022-10-09T07:21:40.468Z,100345.84
2022-10-09T07:24:07.540Z,100356.81
2022-10-09T07:26:37.633Z,100343.72
2022-10-09T07:29:06.652Z,100353.81
2022-10-09T07:31:33.395Z,100350.69
2022-10-09T07:34:00.431Z,100358.00
2022-10-09T07:36:27.682Z,100360.97
2022-10-09T07:38:56.438Z,100364.25
2022-10-09T07:41:25.699Z,100341.84
2022-10-09T07:43:53.211Z,100347.03
2022-10-09T07:46:22.171Z,100345.03
2022-10-09T07:48:49.655Z,100361.63
2022-10-09T07:51:24.980Z,100366.75
2022-10-09T07:53:52.339Z,100380.50
2022-10-09T07:56:21.322Z,100383.63
2022-10-09T07:58:53.015Z,100387.13
2022-10-09T08:01:21.344Z,100381.59
2022-10-09T08:03:49.172Z,100363.53
2022-10-09T08:06:16.935Z,100388.75
2022-10-09T08:08:44.112Z,100370.78
2022-10-09T08:11:16.815Z,100392.63
2022-10-09T08:13:45.445Z,100383.22
2022-10-09T08:16:13.381Z,100394.56
2022-10-09T08:18:40.297Z,100394.19
2022-10-09T08:21:18.509Z,100394.88
2022-10-09T08:23:45.609Z,100384.19
2022-10-09T08:26:18.784Z,100383.59
2022-10-09T08:28:54.367Z,100396.53
2022-10-09T08:31:22.381Z,100400.03
2022-10-09T08:33:52.884Z,100378.50
2022-10-09T08:36:19.728Z,100401.31
2022-10-09T08:38:48.139Z,100409.47
2022-10-09T08:41:33.741Z,100395.22
2022-10-09T08:44:11.460Z,100402.78
2022-10-09T08:46:54.099Z,100406.38
2022-10-09T08:49:30.012Z,100406.41
2022-10-09T08:51:59.652Z,100401.91
2022-10-09T08:54:38.451Z,100395.28
2022-10-09T08:57:11.372Z,100389.31
2022-10-09T08:59:38.412Z,100419.41
2022-10-09T09:02:28.209Z,100395.50
2022-10-09T09:05:04.133Z,100434.69
2022-10-09T09:07:42.100Z,100420.75
2022-10-09T09:10:29.241Z,100407.78
2022-10-09T09:13:19.982Z,100423.91
2022-10-09T09:15:46.976Z,100426.94
2022-10-09T09:18:28.379Z,100421.41
2022-10-09T09:20:58.643Z,100415.31
2022-10-09T09:23:32.271Z,100409.91
2022-10-09T09:25:59.777Z,100417.88
2022-10-09T09:28:35.222Z,100422.56
2022-10-09T09:31:22.798Z,100382.84
2022-10-09T09:34:01.676Z,100423.44
2022-10-09T09:36:33.766Z,100421.94
2022-10-09T09:41:47.422Z,100399.78
2022-10-09T09:44:17.080Z,100416.13
2022-10-09T09:46:46.450Z,100396.94
2022-10-09T09:49:23.995Z,100422.03
2022-10-09T09:51:51.416Z,100412.78
2022-10-09T09:54:24.928Z,100369.03
2022-10-09T09:57:15.891Z,100419.94
2022-10-09T09:59:44.314Z,100399.31
2022-10-09T10:02:13.812Z,100420.59
2022-10-09T10:04:58.367Z,100422.41
2022-10-09T10:07:29.132Z,100415.78
2022-10-09T10:10:23.963Z,100392.22
2022-10-09T10:12:52.209Z,100413.41
2022-10-09T10:15:25.651Z,100409.47
2022-10-09T10:17:58.964Z,100410.38
2022-10-09T10:20:27.395Z,100412.69
2022-10-09T10:22:56.916Z,100402.84
2022-10-09T10:25:33.891Z,100402.66
2022-10-09T10:28:11.797Z,100409.16
2022-10-09T10:30:39.547Z,100394.59
2022-10-09T10:33:22.341Z,100399.63
2022-10-09T10:35:52.811Z,100409.75
2022-10-09T10:38:33.028Z,100405.47
2022-10-09T10:41:08.958Z,100412.31
2022-10-09T10:43:53.931Z,100408.44
2022-10-09T10:46:37.146Z,100415.47
2022-10-09T10:49:04.142Z,100410.09
2022-10-09T10:51:46.529Z,100417.19
2022-10-09T10:54:34.528Z,100411.81
2022-10-09T10:57:21.974Z,100414.09
2022-10-09T11:00:06.660Z,100412.75
2022-10-09T11:02:56.876Z,100389.41
2022-10-09T11:05:47.722Z,100392.09
2022-10-09T11:08:44.754Z,100391.72
2022-10-09T11:11:19.037Z,100412.25
2022-10-09T11:13:56.815Z,100393.28
2022-10-09T11:16:36.564Z,100399.03
2022-10-09T11:19:33.627Z,100386.66
2022-10-09T11:22:11.183Z,100400.25
2022-10-09T11:24:54.587Z,100391.66
2022-10-09T11:27:27.791Z,100380.19
2022-10-09T11:30:09.782Z,100385.91
2022-10-09T11:32:51.768Z,100392.91
2022-10-09T11:35:24.547Z,100399.41
2022-10-09T11:37:58.974Z,100391.50
2022-10-09T11:40:40.315Z,100379.31
2022-10-09T11:43:09.644Z,100403.81
2022-10-09T11:45:53.519Z,100395.66
2022-10-09T11:48:48.125Z,100401.56
2022-10-09T11:51:29.873Z,100389.13
2022-10-09T11:53:58.637Z,100383.72
2022-10-09T11:56:28.380Z,100382.34
2022-10-09T11:59:04.636Z,100398.28
2022-10-09T12:01:41.089Z,100389.91
2022-10-09T12:04:13.856Z,100403.13
2022-10-09T12:07:04.969Z,100403.94
2022-10-09T12:09:45.399Z,100350.19
2022-10-09T12:12:18.611Z,100404.00
2022-10-09T12:14:48.666Z,100380.03
2022-10-09T12:17:38.522Z,100400.63
2022-10-09T12:20:16.608Z,100410.97
2022-10-09T12:23:07.354Z,100415.19
2022-10-09T12:25:44.592Z,100409.84
2022-10-09T12:28:30.833Z,100409.34
2022-10-09T12:31:00.661Z,100413.97
2022-10-09T12:33:51.810Z,100396.38
2022-10-09T12:36:30.355Z,100405.25
2022-10-09T12:38:57.890Z,100404.50
2022-10-09T12:41:33.139Z,100410.09
2022-10-09T12:44:00.379Z,100396.94
2022-10-09T12:46:36.217Z,100395.06
2022-10-09T12:49:06.497Z,100390.38
2022-10-09T12:51:34.363Z,100415.09
2022-10-09T12:54:09.793Z,100406.38
2022-10-09T12:56:39.287Z,100387.06
2022-10-09T12:59:10.443Z,100407.59
2022-10-09T13:01:37.568Z,100391.78
2022-10-09T13:04:08.440Z,100400.91
2022-10-09T13:06:50.279Z,100399.50
2022-10-09T13:09:24.225Z,100369.28
2022-10-09T13:11:58.184Z,100381.44
2022-10-09T13:14:34.097Z,100379.00
2022-10-09T13:17:01.905Z,100378.28
2022-10-09T13:19:31.350Z,100373.78
2022-10-09T13:22:22.352Z,100348.47
2022-10-09T13:24:54.967Z,100369.28
2022-10-09T13:27:28.378Z,100360.78
2022-10-09T13:29:55.818Z,100362.84
2022-10-09T13:32:24.400Z,100367.94
2022-10-09T13:34:55.290Z,100361.25
2022-10-09T13:37:25.609Z,100360.44
2022-10-09T13:39:58.300Z,100342.91
2022-10-09T13:42:33.667Z,100331.28
2022-10-09T13:45:00.573Z,100343.38
2022-10-09T13:47:27.304Z,100356.44
2022-10-09T13:49:54.396Z,100346.78
2022-10-09T13:52:21.317Z,100320.72
2022-10-09T13:54:48.356Z,100333.28
2022-10-09T13:57:15.078Z,100338.69
2022-10-09T13:59:42.511Z,100322.28
2022-10-09T14:02:11.260Z,100302.03
2022-10-09T14:04:38.179Z,100338.81
2022-10-09T14:07:05.193Z,100317.16
2022-10-09T14:09:31.931Z,100324.84
2022-10-09T14:11:59.011Z,100281.34
2022-10-09T14:14:25.751Z,100302.00
2022-10-09T14:17:01.866Z,100308.19
2022-10-09T14:19:28.779Z,100312.63
2022-10-09T14:21:56.156Z,100334.19
2022-10-09T14:24:24.301Z,100326.38
2022-10-09T14:26:51.943Z,100338.16
2022-10-09T14:29:18.842Z,100328.50
2022-10-09T14:31:45.767Z,100336.22
2022-10-09T14:34:15.917Z,100321.44
2022-10-09T14:36:42.716Z,100333.53
2022-10-09T14:39:09.708Z,100333.00
2022-10-09T14:41:37.885Z,100332.72
2022-10-09T14:44:05.336Z,100315.28
2022-10-09T14:46:37.772Z,100324.66
2022-10-09T14:49:07.619Z,100330.28
2022-10-09T14:51:37.360Z,100323.00
2022-10-09T14:54:04.539Z,100326.88
2022-10-09T14:56:31.286Z,100313.84
2022-10-09T14:59:00.626Z,100316.88
2022-10-09T15:01:29.525Z,100293.13
2022-10-09T15:03:56.455Z,100328.91
2022-10-09T15:06:27.749Z,100321.03
2022-10-09T15:08:59.253Z,100323.63
2022-10-09T15:11:30.165Z,100315.94
2022-10-09T15:13:57.149Z,100310.03
2022-10-09T15:16:25.115Z,100320.22
2022-10-09T15:18:55.862Z,100331.16
2022-10-09T15:21:26.045Z,100328.59
2022-10-09T15:23:58.484Z,100306.59
2022-10-09T15:26:27.132Z,100325.13
2022-10-09T15:28:53.864Z,100341.09
2022-10-09T15:31:28.233Z,100322.91
2022-10-09T15:33:56.435Z,100315.63
2022-10-09T15:36:24.024Z,100324.94
2022-10-09T15:38:51.172Z,100324.22
2022-10-09T15:41:21.273Z,100314.06
2022-10-09T15:43:48.252Z,100323.31
2022-10-09T15:46:15.126Z,100311.16
2022-10-09T15:48:42.056Z,100319.31
2022-10-09T15:51:13.425Z,100276.16
2022-10-09T15:53:42.509Z,100296.47
2022-10-09T15:56:10.571Z,100312.00
2022-10-09T15:58:37.389Z,100312.00
2022-10-09T16:01:06.703Z,100320.47
2022-10-09T16:03:36.958Z,100331.56
2022-10-09T16:06:07.758Z,100323.50
2022-10-09T16:08:35.144Z,100333.91
2022-10-09T16:13:43.791Z,100306.78
2022-10-09T16:16:14.740Z,100340.81
2022-10-09T16:18:41.601Z,100332.28
2022-10-09T16:21:11.033Z,100309.84
2022-10-09T16:23:38.177Z,100328.34
2022-10-09T16:26:05.480Z,100314.22
2022-10-09T16:28:33.421Z,100326.00
2022-10-09T16:31:00.760Z,100331.41
2022-10-09T16:33:27.675Z,100284.41
2022-10-09T16:35:54.456Z,100323.63
2022-10-09T16:38:21.434Z,100313.13
2022-10-09T16:41:01.459Z,100321.44
2022-10-09T16:43:29.436Z,100277.72
2022-10-09T16:45:56.134Z,100314.69
2022-10-09T16:48:22.834Z,100329.28
2022-10-09T16:50:49.760Z,100312.63
2022-10-09T16:53:16.640Z,100323.16
2022-10-09T16:55:43.464Z,100294.34
2022-10-09T16:58:10.281Z,100317.41
2022-10-09T17:00:37.232Z,100316.56
2022-10-09T17:03:04.111Z,100315.31
2022-10-09T17:05:31.035Z,100294.63
2022-10-09T17:07:57.751Z,100309.41
2022-10-09T17:10:24.450Z,100296.19
2022-10-09T17:12:51.296Z,100319.94
2022-10-09T17:15:18.447Z,100312.25
2022-10-09T17:17:45.213Z,100293.25
2022-10-09T17:20:13.157Z,100312.63
2022-10-09T17:22:39.857Z,100311.78
2022-10-09T17:25:07.012Z,100272.56
2022-10-09T17:27:33.818Z,100299.03
2022-10-09T17:30:00.522Z,100305.41
2022-10-09T17:32:27.505Z,100301.06
2022-10-09T17:34:54.298Z,100318.53
2022-10-09T17:37:21.045Z,100308.50
2022-10-09T17:39:52.010Z,100316.19
2022-10-09T17:42:19.267Z,100299.41
2022-10-09T17:44:46.029Z,100316.06
2022-10-09T17:47:12.833Z,100317.03
2022-10-09T17:49:39.725Z,100298.81
2022-10-09T17:52:06.604Z,100305.44
2022-10-09T17:54:33.433Z,100304.72
2022-10-09T17:57:01.561Z,100309.91
2022-10-09T17:59:28.414Z,100300.66
2022-10-09T18:01:55.191Z,100309.53
2022-10-09T18:04:22.321Z,100301.16
2022-10-09T18:06:49.286Z,100308.22
2022-10-09T18:09:16.232Z,100301.16
2022-10-09T18:11:43.583Z,100298.03
2022-10-09T18:14:10.384Z,100315.53
2022-10-09T18:16:38.267Z,100319.78
2022-10-09T18:19:12.522Z,100310.47
2022-10-09T18:21:45.198Z,100291.31
2022-10-09T18:24:13.245Z,100312.69
2022-10-09T18:26:40.574Z,100310.22
2022-10-09T18:29:07.358Z,100306.06
2022-10-09T18:31:34.327Z,100316.69
2022-10-09T18:34:01.347Z,100312.69
2022-10-09T18:36:34.746Z,100309.59
2022-10-09T18:39:05.672Z,100314.94
2022-10-09T18:41:32.646Z,100314.56
2022-10-09T18:44:00.521Z,100294.34
2022-10-09T18:46:34.083Z,100311.22
2022-10-09T18:49:01.355Z,100269.72
2022-10-09T18:51:28.939Z,100323.06
2022-10-09T18:54:00.617Z,100324.00
2022-10-09T18:56:32.517Z,100319.03
2022-10-09T18:59:00.994Z,100301.16
2022-10-09T19:01:27.826Z,100315.59
2022-10-09T19:03:54.682Z,100312.16
2022-10-09T19:06:23.182Z,100318.53
2022-10-09T19:08:50.351Z,100322.56
2022-10-09T19:11:17.306Z,100332.00
2022-10-09T19:13:44.956Z,100330.81
2022-10-09T19:16:12.071Z,100334.16
2022-10-09T19:18:39.671Z,100312.59
2022-10-09T19:21:07.115Z,100325.97
2022-10-09T19:23:33.980Z,100329.19
2022-10-09T19:26:00.877Z,100317.47
2022-10-09T19:28:31.234Z,100326.53
2022-10-09T19:31:02.714Z,100338.56
2022-10-09T19:33:29.848Z,100328.38
2022-10-09T19:35:57.265Z,100325.66
2022-10-09T19:38:24.767Z,100310.16
2022-10-09T19:40:51.636Z,100332.50
2022-10-09T19:43:19.662Z,100349.78
2022-10-09T19:45:49.368Z,100353.19
2022-10-09T19:48:17.842Z,100351.16
2022-10-09T19:50:45.688Z,100336.28
2022-10-09T19:53:13.762Z,100343.53
2022-10-09T19:55:40.534Z,100354.63
2022-10-09T19:58:07.512Z,100348.13
2022-10-09T20:00:34.445Z,100309.53
2022-10-09T20:03:01.268Z,100352.41
2022-10-09T20:05:28.038Z,100353.25
2022-10-09T20:07:54.802Z,100350.28
2022-10-09T20:10:21.516Z,100346.13
2022-10-09T20:12:48.706Z,100291.63
2022-10-09T20:15:15.863Z,100337.84
2022-10-09T20:17:42.841Z,100316.78
2022-10-09T20:20:09.941Z,100327.22
2022-10-09T20:22:36.737Z,100329.56
2022-10-09T20:25:05.309Z,100334.53
2022-10-09T20:27:32.006Z,100352.97
2022-10-09T20:29:58.908Z,100299.78
2022-10-09T20:32:25.852Z,100354.84
2022-10-09T20:34:52.615Z,100350.91
2022-10-09T20:37:19.516Z,100335.66
2022-10-09T20:39:46.337Z,100354.50
2022-10-09T20:42:14.260Z,100368.16
2022-10-09T20:44:42.588Z,100332.31
2022-10-09T20:47:09.367Z,100361.22
2022-10-09T20:49:36.138Z,100343.31
2022-10-09T20:52:03.248Z,100352.59
2022-10-09T20:54:30.581Z,100320.97
2022-10-09T20:56:58.748Z,100359.06
2022-10-09T20:59:25.815Z,100358.44
2022-10-09T21:01:52.548Z,100361.81
2022-10-09T21:04:19.387Z,100373.94
2022-10-09T21:06:46.535Z,100369.78
2022-10-09T21:09:13.597Z,100371.09
2022-10-09T21:11:41.670Z,100346.78
2022-10-09T21:14:09.951Z,100362.16
2022-10-09T21:16:36.818Z,100358.25
2022-10-09T21:19:05.025Z,100369.22
2022-10-09T21:21:34.738Z,100364.59
2022-10-09T21:24:02.432Z,100371.91
2022-10-09T21:26:30.762Z,100370.28
2022-10-09T21:28:59.826Z,100350.19
2022-10-09T21:31:29.298Z,100382.63
2022-10-09T21:33:56.953Z,100375.00
2022-10-09T21:36:29.614Z,100386.56
2022-10-09T21:38:56.356Z,100380.19
2022-10-09T21:41:23.193Z,100365.53
2022-10-09T21:43:50.131Z,100395.06
2022-10-09T21:46:16.870Z,100372.59
2022-10-09T21:48:43.743Z,100378.13
2022-10-09T21:51:10.728Z,100356.09
2022-10-09T21:53:37.611Z,100388.78
2022-10-09T21:56:05.420Z,100380.34
2022-10-09T21:58:32.310Z,100390.97
2022-10-09T22:01:01.279Z,100378.22
2022-10-09T22:03:30.271Z,100374.59
2022-10-09T22:05:57.247Z,100368.63
2022-10-09T22:08:24.356Z,100368.16
2022-10-09T22:10:51.495Z,100368.31
2022-10-09T22:13:20.086Z,100367.34
2022-10-09T22:15:50.955Z,100375.84
2022-10-09T22:18:18.546Z,100386.97
2022-10-09T22:20:49.156Z,100372.06
2022-10-09T22:23:18.036Z,100378.41
2022-10-09T22:25:44.808Z,100365.88
2022-10-09T22:28:11.634Z,100335.34
2022-10-09T22:30:39.469Z,100388.41
2022-10-09T22:33:06.180Z,100386.97
2022-10-09T22:35:33.013Z,100376.72
2022-10-09T22:37:59.711Z,100366.56
2022-10-09T22:40:26.430Z,100377.41
2022-10-09T22:42:53.466Z,100371.53
2022-10-09T22:45:20.457Z,100376.03
2022-10-09T22:47:48.038Z,100374.91
2022-10-09T22:50:15.103Z,100362.34
2022-10-09T22:52:41.805Z,100385.97
2022-10-09T22:55:09.160Z,100353.31
2022-10-09T22:57:36.085Z,100384.69
2022-10-09T23:00:03.474Z,100359.66
2022-10-09T23:02:31.466Z,100360.69
2022-10-09T23:04:58.286Z,100358.31
2022-10-09T23:07:25.060Z,100356.50
2022-10-09T23:09:51.774Z,100350.69
2022-10-09T23:12:18.714Z,100366.28
2022-10-09T23:14:45.657Z,100355.84
2022-10-09T23:17:12.359Z,100378.38
2022-10-09T23:19:39.254Z,100375.41
2022-10-09T23:22:06.024Z,100380.72
2022-10-09T23:24:32.744Z,100362.84
2022-10-09T23:26:59.556Z,100360.00
2022-10-09T23:29:26.236Z,100363.97
2022-10-09T23:31:53.639Z,100354.47
2022-10-09T23:34:20.554Z,100323.75
2022-10-09T23:36:47.296Z,100352.00
2022-10-09T23:39:14.040Z,100356.84
2022-10-09T23:41:40.916Z,100340.25
2022-10-09T23:44:07.670Z,100356.63
2022-10-09T23:46:34.590Z,100355.44
2022-10-09T23:49:01.848Z,100350.47
2022-10-09T23:51:28.815Z,100350.19
2022-10-09T23:53:56.493Z,100342.88
2022-10-09T23:56:28.050Z,100351.38
2022-10-09T23:58:56.155Z,100342.03
